Tallulah Falls, Georgia
Current Conditions -  °F | °C
As of 3:35 AM on Monday 22 Dec 2014 (Local Time) from KTOC Reporting Station
Overcast Overcast  
Wind Chill: 42°   Ceiling: 1000
Heat Index: 44°   Visibility: 10mi
Dew Point: 41°   Wind: 5mph
Humidity: 90%   Direction: 60°ENE
Pressure: 30.08"   Gusts: NA
Location:  34.73°N, 83.39°W
Report Text: KTOC 220835Z AUTO 06004KT 10SM BKN010 OVC022 07/05 A3008 RMK AO2 T00670051
Loading
Personal Weather Stations






























Interactive Weather Map New forecast layout! Learn more

10-Day Weather Forecast

Advertisements
Track Severe Weather on mobile